createdAt,value
2022-12-08T00:00:03.105Z,6.70
2022-12-08T00:02:13.958Z,6.70
2022-12-08T00:04:15.805Z,6.70
2022-12-08T00:06:45.290Z,6.70
2022-12-08T00:09:05.519Z,6.70
2022-12-08T00:11:13.092Z,6.70
2022-12-08T00:13:18.482Z,6.70
2022-12-08T00:15:20.122Z,6.70
2022-12-08T00:17:21.828Z,6.70
2022-12-08T00:19:24.756Z,6.70
2022-12-08T00:21:26.399Z,6.70
2022-12-08T00:23:28.309Z,6.70
2022-12-08T00:25:31.230Z,6.70
2022-12-08T00:27:35.911Z,6.70
2022-12-08T00:29:39.055Z,6.70
2022-12-08T00:31:40.823Z,6.70
2022-12-08T00:33:42.728Z,6.70
2022-12-08T00:35:46.536Z,6.70
2022-12-08T00:37:48.359Z,6.70
2022-12-08T00:39:50.156Z,6.70
2022-12-08T00:42:13.112Z,6.70
2022-12-08T00:44:18.887Z,6.70
2022-12-08T00:46:21.154Z,6.70
2022-12-08T00:48:22.992Z,6.70
2022-12-08T00:50:24.656Z,6.70
2022-12-08T00:52:26.389Z,6.70
2022-12-08T00:54:28.049Z,6.60
2022-12-08T00:56:30.099Z,6.60
2022-12-08T00:58:33.025Z,6.60
2022-12-08T01:00:34.669Z,6.60
2022-12-08T01:02:36.343Z,6.60
2022-12-08T01:04:40.547Z,6.60
2022-12-08T01:06:43.372Z,6.60
2022-12-08T01:08:45.166Z,6.60
2022-12-08T01:10:46.895Z,6.60
2022-12-08T01:12:48.537Z,6.60
2022-12-08T01:15:02.032Z,6.60
2022-12-08T01:17:04.354Z,6.50
2022-12-08T01:19:06.087Z,6.50
2022-12-08T01:21:08.382Z,6.50
2022-12-08T01:23:12.332Z,6.50
2022-12-08T01:25:14.174Z,6.50
2022-12-08T01:27:16.651Z,6.40
2022-12-08T01:29:19.562Z,6.40
2022-12-08T01:31:26.847Z,6.40
2022-12-08T01:33:31.406Z,6.40
2022-12-08T01:35:34.614Z,6.40
2022-12-08T01:37:36.262Z,6.40
2022-12-08T01:39:37.939Z,6.40
2022-12-08T01:41:42.230Z,6.40
2022-12-08T01:44:23.974Z,6.40
2022-12-08T01:46:26.453Z,6.40
2022-12-08T01:48:28.904Z,6.40
2022-12-08T01:50:31.178Z,6.40
2022-12-08T01:52:38.839Z,6.40
2022-12-08T01:54:52.804Z,6.40
2022-12-08T01:57:11.657Z,6.40
2022-12-08T01:59:13.556Z,6.40
2022-12-08T02:01:17.703Z,6.40
2022-12-08T02:03:28.540Z,6.50
2022-12-08T02:05:36.964Z,6.40
2022-12-08T02:07:38.789Z,6.40
2022-12-08T02:09:41.549Z,6.40
2022-12-08T02:11:43.171Z,6.40
2022-12-08T02:13:47.063Z,6.40
2022-12-08T02:16:14.822Z,6.40
2022-12-08T02:18:26.511Z,6.50
2022-12-08T02:20:46.952Z,6.40
2022-12-08T02:23:04.052Z,6.40
2022-12-08T02:25:29.565Z,6.40
2022-12-08T02:27:41.085Z,6.50
2022-12-08T02:30:03.684Z,6.40
2022-12-08T02:32:59.208Z,6.50
2022-12-08T02:35:10.993Z,6.50
2022-12-08T02:37:37.883Z,6.50
2022-12-08T02:40:08.746Z,6.50
2022-12-08T02:42:27.637Z,6.40
2022-12-08T02:44:42.550Z,6.40
2022-12-08T02:47:04.849Z,6.50
2022-12-08T02:49:09.696Z,6.50
2022-12-08T02:51:11.394Z,6.50
2022-12-08T02:55:22.788Z,6.50
2022-12-08T02:57:50.915Z,6.50
2022-12-08T03:00:13.313Z,6.50
2022-12-08T03:02:15.011Z,6.50
2022-12-08T03:04:34.451Z,6.50
2022-12-08T03:06:50.973Z,6.50
2022-12-08T03:09:11.999Z,6.50
2022-12-08T03:11:20.293Z,6.40
2022-12-08T03:13:34.111Z,6.50
2022-12-08T03:15:38.582Z,6.50
2022-12-08T03:17:45.449Z,6.50
2022-12-08T03:19:53.771Z,6.40
2022-12-08T03:22:03.422Z,6.50
2022-12-08T03:24:07.827Z,6.50
2022-12-08T03:26:18.475Z,6.50
2022-12-08T03:28:21.345Z,6.50
2022-12-08T03:30:23.145Z,6.50
2022-12-08T03:32:38.897Z,6.50
2022-12-08T03:34:46.531Z,6.50
2022-12-08T03:36:49.600Z,6.50
2022-12-08T03:38:52.902Z,6.50
2022-12-08T03:41:14.226Z,6.50
2022-12-08T03:43:16.039Z,6.50
2022-12-08T03:45:17.702Z,6.50
2022-12-08T03:47:19.408Z,6.50
2022-12-08T03:49:21.169Z,6.50
2022-12-08T03:51:23.759Z,6.50
2022-12-08T03:53:28.245Z,6.50
2022-12-08T03:55:29.879Z,6.50
2022-12-08T03:57:31.620Z,6.50
2022-12-08T03:59:33.244Z,6.50
2022-12-08T04:01:35.026Z,6.50
2022-12-08T04:03:39.892Z,6.50
2022-12-08T04:05:41.650Z,6.50
2022-12-08T04:07:43.545Z,6.50
2022-12-08T04:09:45.432Z,6.50
2022-12-08T04:11:47.098Z,6.50
2022-12-08T04:13:49.861Z,6.40
2022-12-08T04:15:52.619Z,6.40
2022-12-08T04:17:54.284Z,6.50
2022-12-08T04:19:55.919Z,6.40
2022-12-08T04:21:57.638Z,6.40
2022-12-08T04:24:01.490Z,6.40
2022-12-08T04:26:06.426Z,6.40
2022-12-08T04:28:08.158Z,6.40
2022-12-08T04:30:12.760Z,6.40
2022-12-08T04:32:16.952Z,6.30
2022-12-08T04:34:20.919Z,6.30
2022-12-08T04:36:22.621Z,6.30
2022-12-08T04:38:24.334Z,6.30
2022-12-08T04:40:26.125Z,6.30
2022-12-08T04:42:29.333Z,6.30
2022-12-08T04:44:31.008Z,6.30
2022-12-08T04:46:32.766Z,6.20
2022-12-08T04:48:36.301Z,6.30
2022-12-08T04:50:42.925Z,6.30
2022-12-08T04:52:47.201Z,6.30
2022-12-08T04:54:49.101Z,6.30
2022-12-08T04:56:50.751Z,6.20
2022-12-08T04:58:52.805Z,6.20
2022-12-08T05:00:54.561Z,6.20
2022-12-08T05:02:56.393Z,6.20
2022-12-08T05:05:00.523Z,6.20
2022-12-08T05:07:02.218Z,6.20
2022-12-08T05:09:04.179Z,6.20
2022-12-08T05:11:08.343Z,6.20
2022-12-08T05:13:11.271Z,6.20
2022-12-08T05:15:12.883Z,6.20
2022-12-08T05:17:16.067Z,6.20
2022-12-08T05:19:18.212Z,6.20
2022-12-08T05:21:22.015Z,6.20
2022-12-08T05:23:23.667Z,6.20
2022-12-08T05:25:28.867Z,6.20
2022-12-08T05:27:30.549Z,6.20
2022-12-08T05:29:32.371Z,6.20
2022-12-08T05:31:34.100Z,6.20
2022-12-08T05:33:35.772Z,6.10
2022-12-08T05:35:40.056Z,6.10
2022-12-08T05:37:41.718Z,6.20
2022-12-08T05:39:44.155Z,6.10
2022-12-08T05:41:45.823Z,6.10
2022-12-08T05:43:48.052Z,6.10
2022-12-08T05:45:49.752Z,6.10
2022-12-08T05:47:53.721Z,6.10
2022-12-08T05:49:57.555Z,6.20
2022-12-08T05:51:59.277Z,6.10
2022-12-08T05:54:01.159Z,6.10
2022-12-08T05:56:02.822Z,6.20
2022-12-08T05:58:07.894Z,6.20
2022-12-08T06:00:10.542Z,6.20
2022-12-08T06:02:15.135Z,6.20
2022-12-08T06:04:16.940Z,6.20
2022-12-08T06:06:18.970Z,6.20
2022-12-08T06:08:23.193Z,6.20
2022-12-08T06:10:24.944Z,6.20
2022-12-08T06:12:26.677Z,6.20
2022-12-08T06:14:30.405Z,6.20
2022-12-08T06:16:32.304Z,6.10
2022-12-08T06:18:34.103Z,6.20
2022-12-08T06:20:35.874Z,6.10
2022-12-08T06:22:37.781Z,6.20
2022-12-08T06:24:39.471Z,6.10
2022-12-08T06:26:41.512Z,6.10
2022-12-08T06:28:43.801Z,6.10
2022-12-08T06:30:45.481Z,6.10
2022-12-08T06:32:47.111Z,6.10
2022-12-08T06:34:51.357Z,6.10
2022-12-08T06:36:53.048Z,6.10
2022-12-08T06:38:55.226Z,6.20
2022-12-08T06:40:58.450Z,6.10
2022-12-08T06:43:00.078Z,6.10
2022-12-08T06:45:11.424Z,6.10
2022-12-08T06:47:16.066Z,6.10
2022-12-08T06:49:17.755Z,6.10
2022-12-08T06:51:22.711Z,6.10
2022-12-08T06:53:26.578Z,6.10
2022-12-08T06:55:58.744Z,6.10
2022-12-08T06:57:53.989Z,6.10
2022-12-08T06:59:55.933Z,6.10
2022-12-08T07:01:57.634Z,6.10
2022-12-08T07:03:59.376Z,6.10
2022-12-08T07:06:04.123Z,6.10
2022-12-08T07:08:08.299Z,6.10
2022-12-08T07:10:10.937Z,6.10
2022-12-08T07:12:12.618Z,6.10
2022-12-08T07:14:14.592Z,6.10
2022-12-08T07:16:16.570Z,6.10
2022-12-08T07:18:18.315Z,6.10
2022-12-08T07:20:20.034Z,6.10
2022-12-08T07:22:24.194Z,6.10
2022-12-08T07:24:26.210Z,6.00
2022-12-08T07:26:29.138Z,6.10
2022-12-08T07:28:37.064Z,6.10
2022-12-08T07:30:41.729Z,6.10
2022-12-08T07:32:43.555Z,6.00
2022-12-08T07:34:47.179Z,6.10
2022-12-08T07:36:49.108Z,6.00
2022-12-08T07:38:53.939Z,6.00
2022-12-08T07:40:55.588Z,6.10
2022-12-08T07:42:57.208Z,6.00
2022-12-08T07:44:59.197Z,6.00
2022-12-08T07:47:03.253Z,6.00
2022-12-08T07:49:04.990Z,6.00
2022-12-08T07:51:06.752Z,6.00
2022-12-08T07:53:09.003Z,6.00
2022-12-08T07:55:12.188Z,6.00
2022-12-08T07:57:13.885Z,6.00
2022-12-08T07:59:15.644Z,6.00
2022-12-08T08:01:26.587Z,6.00
2022-12-08T08:03:28.466Z,6.00
2022-12-08T08:05:30.207Z,6.00
2022-12-08T08:07:32.272Z,6.00
2022-12-08T08:09:34.342Z,6.00
2022-12-08T08:11:36.533Z,6.00
2022-12-08T08:13:38.247Z,6.00
2022-12-08T08:15:40.668Z,6.00
2022-12-08T08:17:42.410Z,6.10
2022-12-08T08:19:45.651Z,6.10
2022-12-08T08:21:47.345Z,6.00
2022-12-08T08:23:49.278Z,6.10
2022-12-08T08:25:53.044Z,6.10
2022-12-08T08:27:55.005Z,6.10
2022-12-08T08:29:58.807Z,6.10
2022-12-08T08:32:00.519Z,6.10
2022-12-08T08:34:06.076Z,6.10
2022-12-08T08:36:09.250Z,6.10
2022-12-08T08:38:10.883Z,6.10
2022-12-08T08:40:12.749Z,6.10
2022-12-08T08:42:14.362Z,6.10
2022-12-08T08:44:15.975Z,6.10
2022-12-08T08:46:17.666Z,6.20
2022-12-08T08:48:20.553Z,6.20
2022-12-08T08:50:25.307Z,6.10
2022-12-08T08:52:26.987Z,6.10
2022-12-08T08:54:29.363Z,6.10
2022-12-08T08:56:34.087Z,6.20
2022-12-08T08:58:35.737Z,6.10
2022-12-08T09:00:37.358Z,6.10
2022-12-08T09:02:39.398Z,6.10
2022-12-08T09:04:41.129Z,6.10
2022-12-08T09:06:45.715Z,6.10
2022-12-08T09:08:47.809Z,6.10
2022-12-08T09:10:49.473Z,6.10
2022-12-08T09:12:51.870Z,6.10
2022-12-08T09:14:53.529Z,6.10
2022-12-08T09:16:56.326Z,6.10
2022-12-08T09:19:00.471Z,6.10
2022-12-08T09:21:07.266Z,6.10
2022-12-08T09:23:08.990Z,6.10
2022-12-08T09:25:10.700Z,6.10
2022-12-08T09:27:12.382Z,6.10
2022-12-08T09:29:17.569Z,6.10
2022-12-08T09:31:21.401Z,6.10
2022-12-08T09:33:23.433Z,6.10
2022-12-08T09:35:26.240Z,6.10
2022-12-08T09:37:27.884Z,6.20
2022-12-08T09:39:29.839Z,6.20
2022-12-08T09:41:48.725Z,6.20
2022-12-08T09:44:09.124Z,6.20
2022-12-08T09:46:13.429Z,6.30
2022-12-08T09:48:47.960Z,6.20
2022-12-08T09:50:57.846Z,6.30
2022-12-08T09:53:14.305Z,6.30
2022-12-08T09:55:59.505Z,6.20
2022-12-08T09:58:04.847Z,6.30
2022-12-08T10:00:08.054Z,6.20
2022-12-08T10:02:22.729Z,6.20
2022-12-08T10:04:37.071Z,6.20
2022-12-08T10:06:42.351Z,6.20
2022-12-08T10:09:00.665Z,6.20
2022-12-08T10:11:11.449Z,6.20
2022-12-08T10:13:35.211Z,6.20
2022-12-08T10:16:22.036Z,6.20
2022-12-08T10:18:32.248Z,6.20
2022-12-08T10:20:40.379Z,6.20
2022-12-08T10:22:44.926Z,6.10
2022-12-08T10:24:57.792Z,6.10
2022-12-08T10:27:07.947Z,6.10
2022-12-08T10:29:13.453Z,6.10
2022-12-08T10:31:21.412Z,6.00
2022-12-08T10:33:23.760Z,6.00
2022-12-08T10:35:41.781Z,6.10
2022-12-08T10:37:58.220Z,6.00
2022-12-08T10:40:04.026Z,6.10
2022-12-08T10:42:21.780Z,6.00
2022-12-08T10:44:23.444Z,6.00
2022-12-08T10:46:27.557Z,6.00
2022-12-08T10:48:31.208Z,6.00
2022-12-08T10:50:47.641Z,6.00
2022-12-08T10:53:08.635Z,6.10
2022-12-08T10:55:21.849Z,6.10
2022-12-08T10:57:25.247Z,6.10
2022-12-08T10:59:33.871Z,6.10
2022-12-08T11:01:39.222Z,6.10
2022-12-08T11:03:50.424Z,6.10
2022-12-08T11:05:56.457Z,6.10
2022-12-08T11:07:58.860Z,6.10
2022-12-08T11:10:00.870Z,6.10
2022-12-08T11:12:17.420Z,6.20
2022-12-08T11:14:26.616Z,6.20
2022-12-08T11:16:31.120Z,6.20
2022-12-08T11:18:42.348Z,6.20
2022-12-08T11:20:44.053Z,6.20
2022-12-08T11:22:54.409Z,6.20
2022-12-08T11:25:03.888Z,6.20
2022-12-08T11:27:06.863Z,6.30
2022-12-08T11:29:12.681Z,6.30
2022-12-08T11:31:38.389Z,6.30
2022-12-08T11:33:44.201Z,6.30
2022-12-08T11:35:52.782Z,6.30
2022-12-08T11:38:20.538Z,6.30
2022-12-08T11:40:28.276Z,6.30
2022-12-08T11:42:37.648Z,6.30
2022-12-08T11:44:47.644Z,6.30
2022-12-08T11:46:56.935Z,6.30
2022-12-08T11:49:06.676Z,6.40
2022-12-08T11:51:28.737Z,6.40
2022-12-08T11:53:38.892Z,6.40
2022-12-08T11:55:50.197Z,6.40
2022-12-08T11:57:53.643Z,6.40
2022-12-08T12:00:02.285Z,6.40
2022-12-08T12:02:24.316Z,6.40
2022-12-08T12:04:38.619Z,6.40
2022-12-08T12:07:19.406Z,6.40
2022-12-08T12:09:51.531Z,6.40
2022-12-08T12:12:19.181Z,6.40
2022-12-08T12:14:44.559Z,6.40
2022-12-08T12:16:57.919Z,6.50
2022-12-08T12:19:06.953Z,6.50
2022-12-08T12:21:26.255Z,6.40
2022-12-08T12:23:59.028Z,6.50
2022-12-08T12:26:05.377Z,6.40
2022-12-08T12:28:12.086Z,6.40
2022-12-08T12:30:26.511Z,6.40
2022-12-08T12:32:45.349Z,6.50
2022-12-08T12:34:54.496Z,6.50
2022-12-08T12:36:57.996Z,6.40
2022-12-08T12:39:01.047Z,6.50
2022-12-08T12:41:05.984Z,6.50
2022-12-08T12:43:10.357Z,6.60
2022-12-08T12:45:17.785Z,6.50
2022-12-08T12:47:59.793Z,6.60
2022-12-08T12:50:08.545Z,6.60
2022-12-08T12:52:10.293Z,6.60
2022-12-08T12:54:28.339Z,6.60
2022-12-08T12:57:05.278Z,6.70
2022-12-08T12:59:44.463Z,6.70
2022-12-08T13:01:56.720Z,6.70
2022-12-08T13:04:09.630Z,6.70
2022-12-08T13:06:19.229Z,6.70
2022-12-08T13:08:23.824Z,6.70
2022-12-08T13:10:29.053Z,6.70
2022-12-08T13:12:31.033Z,6.70
2022-12-08T13:14:36.044Z,6.70
2022-12-08T13:16:41.678Z,6.70
2022-12-08T13:18:49.141Z,6.80
2022-12-08T13:21:09.756Z,6.80
2022-12-08T13:23:26.031Z,6.80
2022-12-08T13:25:39.749Z,6.80
2022-12-08T13:27:55.689Z,6.80
2022-12-08T13:30:51.786Z,6.80
2022-12-08T13:35:23.429Z,6.80
2022-12-08T13:37:30.651Z,6.80
2022-12-08T13:39:49.787Z,6.70
2022-12-08T13:42:07.228Z,6.70
2022-12-08T13:47:24.715Z,6.70
2022-12-08T13:55:13.575Z,6.60
2022-12-08T13:57:10.490Z,6.60
2022-12-08T13:59:19.257Z,6.60
2022-12-08T14:01:25.693Z,6.60
2022-12-08T14:03:27.998Z,6.60
2022-12-08T14:06:10.483Z,6.60
2022-12-08T14:08:02.950Z,6.60
2022-12-08T14:10:25.810Z,6.50
2022-12-08T14:12:29.829Z,6.50
2022-12-08T14:15:01.809Z,6.50
2022-12-08T14:17:03.257Z,6.50
2022-12-08T14:19:26.488Z,6.50
2022-12-08T14:21:35.862Z,6.50
2022-12-08T14:23:38.301Z,6.40
2022-12-08T14:25:47.649Z,6.40
2022-12-08T14:27:50.071Z,6.40
2022-12-08T14:29:53.993Z,6.40
2022-12-08T14:31:55.981Z,6.30
2022-12-08T14:33:57.704Z,6.30
2022-12-08T14:35:59.719Z,6.30
2022-12-08T14:38:06.157Z,6.30
2022-12-08T14:40:23.668Z,6.30
2022-12-08T14:42:27.823Z,6.30
2022-12-08T14:44:33.092Z,6.30
2022-12-08T14:46:34.797Z,6.20
2022-12-08T14:48:36.448Z,6.30
2022-12-08T14:51:05.475Z,6.30
2022-12-08T14:53:17.257Z,6.30
2022-12-08T14:55:22.423Z,6.30
2022-12-08T14:57:39.873Z,6.30
2022-12-08T14:59:45.382Z,6.30
2022-12-08T15:01:52.027Z,6.30
2022-12-08T15:04:01.262Z,6.30
2022-12-08T15:06:07.817Z,6.30
2022-12-08T15:08:14.871Z,6.30
2022-12-08T15:10:16.821Z,6.30
2022-12-08T15:12:27.308Z,6.30
2022-12-08T15:14:36.631Z,6.30
2022-12-08T15:16:43.788Z,6.30
2022-12-08T15:18:51.858Z,6.30
2022-12-08T15:21:00.877Z,6.20
2022-12-08T15:23:05.705Z,6.30
2022-12-08T15:25:13.715Z,6.20
2022-12-08T15:27:20.700Z,6.20
2022-12-08T15:29:25.651Z,6.20
2022-12-08T15:31:27.582Z,6.20
2022-12-08T15:33:29.323Z,6.20
2022-12-08T15:35:34.654Z,6.20
2022-12-08T15:37:38.989Z,6.20
2022-12-08T15:39:40.632Z,6.20
2022-12-08T15:41:42.411Z,6.20
2022-12-08T15:43:47.160Z,6.20
2022-12-08T15:45:58.591Z,6.20
2022-12-08T15:48:02.164Z,6.20
2022-12-08T15:50:05.698Z,6.10
2022-12-08T15:52:27.314Z,6.10
2022-12-08T15:54:29.838Z,6.20
2022-12-08T15:56:41.087Z,6.10
2022-12-08T15:58:54.244Z,6.10
2022-12-08T16:00:57.973Z,6.10
2022-12-08T16:03:42.180Z,6.10
2022-12-08T16:05:42.857Z,6.10
2022-12-08T16:07:52.900Z,6.10
2022-12-08T16:09:56.940Z,6.10
2022-12-08T16:12:17.914Z,6.10
2022-12-08T16:15:15.956Z,6.10
2022-12-08T16:16:47.542Z,6.10
2022-12-08T16:18:51.028Z,6.10
2022-12-08T16:23:34.541Z,6.00
2022-12-08T16:26:00.128Z,6.00
2022-12-08T16:28:02.909Z,6.00
2022-12-08T16:30:08.798Z,6.00
2022-12-08T16:32:10.633Z,6.00
2022-12-08T16:34:12.496Z,6.00
2022-12-08T16:36:18.361Z,6.00
2022-12-08T16:38:20.577Z,6.00
2022-12-08T16:40:27.166Z,6.00
2022-12-08T16:42:39.643Z,6.00
2022-12-08T16:44:44.395Z,6.00
2022-12-08T16:46:53.329Z,6.00
2022-12-08T16:48:56.893Z,6.00
2022-12-08T16:50:58.657Z,6.00
2022-12-08T16:53:05.223Z,6.00
2022-12-08T16:55:11.375Z,6.00
2022-12-08T16:57:13.133Z,6.00
2022-12-08T16:59:14.769Z,5.90
2022-12-08T17:01:19.857Z,6.00
2022-12-08T17:03:26.187Z,6.00
2022-12-08T17:05:30.260Z,6.00
2022-12-08T17:07:32.181Z,6.00
2022-12-08T17:09:33.849Z,6.00
2022-12-08T17:11:42.626Z,6.00
2022-12-08T17:13:45.195Z,6.00
2022-12-08T17:15:46.853Z,6.00
2022-12-08T17:17:51.730Z,6.00
2022-12-08T17:19:55.561Z,6.00
2022-12-08T17:21:57.339Z,6.00
2022-12-08T17:23:59.109Z,6.00
2022-12-08T17:26:01.237Z,6.00
2022-12-08T17:28:05.318Z,6.00
2022-12-08T17:30:11.430Z,6.00
2022-12-08T17:32:13.289Z,6.00
2022-12-08T17:34:15.167Z,6.00
2022-12-08T17:36:17.553Z,6.00
2022-12-08T17:38:20.756Z,6.00
2022-12-08T17:40:25.550Z,6.00
2022-12-08T17:42:29.713Z,6.00
2022-12-08T17:44:33.249Z,6.00
2022-12-08T17:46:41.347Z,6.00
2022-12-08T17:48:44.455Z,6.00
2022-12-08T17:50:46.176Z,6.00
2022-12-08T17:52:50.943Z,6.00
2022-12-08T17:54:52.736Z,6.00
2022-12-08T17:56:54.957Z,6.00
2022-12-08T17:58:56.665Z,6.00
2022-12-08T18:00:58.335Z,6.00
2022-12-08T18:03:00.489Z,6.00
2022-12-08T18:05:05.086Z,6.00
2022-12-08T18:07:06.809Z,6.00
2022-12-08T18:09:09.840Z,6.00
2022-12-08T18:11:16.592Z,6.00
2022-12-08T18:13:18.436Z,6.00
2022-12-08T18:15:20.437Z,6.00
2022-12-08T18:17:24.377Z,6.00
2022-12-08T18:19:26.257Z,6.00
2022-12-08T18:21:30.665Z,6.00
2022-12-08T18:23:32.430Z,6.00
2022-12-08T18:25:36.495Z,6.00
2022-12-08T18:27:44.929Z,6.00
2022-12-08T18:29:46.712Z,6.00
2022-12-08T18:31:49.056Z,6.00
2022-12-08T18:33:52.511Z,6.00
2022-12-08T18:35:56.403Z,6.10
2022-12-08T18:38:00.106Z,6.00
2022-12-08T18:40:01.914Z,6.10
2022-12-08T18:42:22.643Z,6.10
2022-12-08T18:44:24.927Z,6.10
2022-12-08T18:46:26.636Z,6.10
2022-12-08T18:48:28.372Z,6.10
2022-12-08T18:50:30.056Z,6.10
2022-12-08T18:52:34.810Z,6.10
2022-12-08T18:55:05.073Z,6.10
2022-12-08T18:56:59.787Z,6.10
2022-12-08T18:59:07.041Z,6.10
2022-12-08T19:01:13.663Z,6.10
2022-12-08T19:03:15.337Z,6.10
2022-12-08T19:05:17.132Z,6.10
2022-12-08T19:07:19.851Z,6.10
2022-12-08T19:09:22.572Z,6.10
2022-12-08T19:11:27.786Z,6.10
2022-12-08T19:13:30.351Z,6.10
2022-12-08T19:15:33.556Z,6.10
2022-12-08T19:17:35.259Z,6.10
2022-12-08T19:19:36.910Z,6.10
2022-12-08T19:21:46.356Z,6.10
2022-12-08T19:23:55.793Z,6.10
2022-12-08T19:25:57.492Z,6.10
2022-12-08T19:27:59.221Z,6.10
2022-12-08T19:30:03.474Z,6.10
2022-12-08T19:32:05.464Z,6.00
2022-12-08T19:34:09.025Z,6.00
2022-12-08T19:36:14.559Z,6.00
2022-12-08T19:38:17.204Z,6.00
2022-12-08T19:40:39.221Z,6.00
2022-12-08T19:42:59.651Z,6.00
2022-12-08T19:45:05.735Z,6.00
2022-12-08T19:47:07.630Z,6.00
2022-12-08T19:49:11.800Z,6.00
2022-12-08T19:51:13.662Z,6.00
2022-12-08T19:53:15.901Z,6.00
2022-12-08T19:55:17.629Z,6.00
2022-12-08T19:57:20.308Z,5.90
2022-12-08T19:59:26.041Z,5.90
2022-12-08T20:01:27.750Z,5.90
2022-12-08T20:03:29.556Z,5.90
2022-12-08T20:05:33.231Z,5.90
2022-12-08T20:07:36.876Z,5.90
2022-12-08T20:09:38.569Z,5.90
2022-12-08T20:11:41.112Z,5.80
2022-12-08T20:13:45.355Z,5.80
2022-12-08T20:15:48.507Z,5.80
2022-12-08T20:17:50.300Z,5.80
2022-12-08T20:19:53.341Z,5.80
2022-12-08T20:21:55.575Z,5.80
2022-12-08T20:23:57.549Z,5.80
2022-12-08T20:26:01.831Z,5.80
2022-12-08T20:28:06.116Z,5.80
2022-12-08T20:30:13.360Z,5.80
2022-12-08T20:32:20.493Z,5.80
2022-12-08T20:34:22.338Z,5.80
2022-12-08T20:36:26.603Z,5.80
2022-12-08T20:38:31.147Z,5.90
2022-12-08T20:40:32.954Z,5.90
2022-12-08T20:42:34.699Z,5.90
2022-12-08T20:44:36.544Z,5.90
2022-12-08T20:46:38.610Z,5.90
2022-12-08T20:48:41.295Z,5.90
2022-12-08T20:50:43.189Z,5.90
2022-12-08T20:52:47.586Z,6.00
2022-12-08T20:54:49.622Z,6.00
2022-12-08T20:56:53.460Z,6.00
2022-12-08T20:58:57.197Z,6.00
2022-12-08T21:00:59.084Z,6.00
2022-12-08T21:03:01.231Z,6.10
2022-12-08T21:05:03.296Z,6.00
2022-12-08T21:07:05.553Z,6.00
2022-12-08T21:09:07.452Z,6.00
2022-12-08T21:11:09.787Z,6.00
2022-12-08T21:13:14.287Z,6.00
2022-12-08T21:15:16.175Z,6.00
2022-12-08T21:17:20.927Z,6.00
2022-12-08T21:19:23.022Z,6.00
2022-12-08T21:21:25.131Z,6.00
2022-12-08T21:23:27.275Z,6.00
2022-12-08T21:25:29.189Z,6.00
2022-12-08T21:27:31.110Z,6.00
2022-12-08T21:29:32.866Z,6.00
2022-12-08T21:31:36.190Z,6.00
2022-12-08T21:33:38.745Z,6.10
2022-12-08T21:35:42.889Z,6.00
2022-12-08T21:37:46.839Z,6.10
2022-12-08T21:39:48.667Z,6.00
2022-12-08T21:42:09.212Z,6.00
2022-12-08T21:44:13.209Z,6.00
2022-12-08T21:46:17.132Z,5.90
2022-12-08T21:48:19.054Z,5.90
2022-12-08T21:50:20.894Z,5.90
2022-12-08T21:52:22.725Z,5.90
2022-12-08T21:54:24.722Z,5.90
2022-12-08T21:56:28.611Z,5.90
2022-12-08T21:58:32.382Z,5.90
2022-12-08T22:00:34.526Z,5.90
2022-12-08T22:02:36.440Z,5.90
2022-12-08T22:04:38.808Z,5.90
2022-12-08T22:06:40.607Z,5.90
2022-12-08T22:08:42.811Z,6.00
2022-12-08T22:10:48.556Z,6.00
2022-12-08T22:12:52.664Z,6.00
2022-12-08T22:14:54.471Z,6.00
2022-12-08T22:16:56.302Z,6.00
2022-12-08T22:18:59.229Z,5.90
2022-12-08T22:21:01.208Z,5.90
2022-12-08T22:23:03.079Z,5.90
2022-12-08T22:25:10.950Z,5.90
2022-12-08T22:27:12.819Z,5.80
2022-12-08T22:29:14.854Z,5.90
2022-12-08T22:31:21.424Z,5.90
2022-12-08T22:33:23.268Z,5.90
2022-12-08T22:35:24.943Z,5.80
2022-12-08T22:37:26.603Z,5.80
2022-12-08T22:39:28.250Z,5.80
2022-12-08T22:41:29.956Z,5.80
2022-12-08T22:43:34.681Z,5.80
2022-12-08T22:45:36.524Z,5.70
2022-12-08T22:47:38.416Z,5.70
2022-12-08T22:49:40.282Z,5.60
2022-12-08T22:51:41.949Z,5.70
2022-12-08T22:53:44.525Z,5.60
2022-12-08T22:55:46.507Z,5.60
2022-12-08T22:57:48.298Z,5.60
2022-12-08T22:59:49.974Z,5.60
2022-12-08T23:01:53.963Z,5.50
2022-12-08T23:03:56.766Z,5.60
2022-12-08T23:06:01.710Z,5.50
2022-12-08T23:08:05.561Z,5.50
2022-12-08T23:10:10.034Z,5.50
2022-12-08T23:12:12.246Z,5.50
2022-12-08T23:14:14.944Z,5.50
2022-12-08T23:16:16.856Z,5.50
2022-12-08T23:18:19.312Z,5.50
2022-12-08T23:20:21.710Z,5.50
2022-12-08T23:22:23.477Z,5.50
2022-12-08T23:24:25.147Z,5.50
2022-12-08T23:26:29.773Z,5.50
2022-12-08T23:28:31.581Z,5.50
2022-12-08T23:30:33.605Z,5.50
2022-12-08T23:32:35.479Z,5.50
2022-12-08T23:34:39.392Z,5.50
2022-12-08T23:36:43.988Z,5.50
2022-12-08T23:38:48.113Z,5.50
2022-12-08T23:40:49.871Z,5.50
2022-12-08T23:42:51.622Z,5.50
2022-12-08T23:44:55.723Z,5.50
2022-12-08T23:47:00.327Z,5.60
2022-12-08T23:49:02.402Z,5.60
2022-12-08T23:51:04.198Z,5.60
2022-12-08T23:53:05.892Z,5.70
2022-12-08T23:55:08.525Z,5.70
2022-12-08T23:57:10.272Z,5.70
2022-12-08T23:59:12.012Z,5.70
